Time,TemperatureF,DewpointF,PressureIn,WindDirection,WindDirectionDegrees,WindSpeedMPH,WindSpeedGustMPH,Humidity,HourlyPrecipIn,Conditions,Clouds,dailyrainin,SoftwareType,DateUTC
2013-02-15 00:07:00,53.4,12.0,30.09,ENE,66,11.0,15.0,19,0.00,,,0.00,weatherlink.com 1.10,2013-02-15 07:07:00,
2013-02-15 00:22:00,52.4,13.0,30.10,ENE,68,11.0,20.0,21,0.00,,,0.00,weatherlink.com 1.10,2013-02-15 07:22:00,
2013-02-15 00:38:00,51.6,14.0,30.10,ENE,69,11.0,19.0,22,0.00,,,0.00,weatherlink.com 1.10,2013-02-15 07:38:00,
2013-02-15 00:52:00,52.0,14.0,30.10,NE,53,4.0,23.0,22,0.00,,,0.00,weatherlink.com 1.10,2013-02-15 07:52:00,
2013-02-15 01:07:00,52.1,14.0,30.11,NE,36,5.0,17.0,22,0.00,,,0.00,weatherlink.com 1.10,2013-02-15 08:07:00,
2013-02-15 01:23:00,51.6,15.0,30.11,NNE,23,3.0,17.0,23,0.00,,,0.00,weatherlink.com 1.10,2013-02-15 08:23:00,
2013-02-15 01:38:00,51.3,15.0,30.11,ENE,62,11.0,16.0,24,0.00,,,0.00,weatherlink.com 1.10,2013-02-15 08:38:00,
2013-02-15 01:53:00,50.8,15.0,30.11,NNE,20,8.0,18.0,24,0.00,,,0.00,weatherlink.com 1.10,2013-02-15 08:53:00,
2013-02-15 02:08:00,50.4,15.0,30.11,ENE,66,10.0,21.0,24,0.00,,,0.00,weatherlink.com 1.10,2013-02-15 09:08:00,
2013-02-15 02:23:00,48.5,14.0,30.11,ENE,75,19.0,25.0,25,0.00,,,0.00,weatherlink.com 1.10,2013-02-15 09:23:00,
2013-02-15 02:38:00,47.7,14.0,30.11,ESE,112,9.0,33.0,26,0.00,,,0.00,weatherlink.com 1.10,2013-02-15 09:38:00,
2013-02-15 02:53:00,46.9,13.0,30.11,East,93,16.0,31.0,26,0.00,,,0.00,weatherlink.com 1.10,2013-02-15 09:53:00,
2013-02-15 03:08:00,46.7,16.0,30.11,East,86,16.0,34.0,29,0.00,,,0.00,weatherlink.com 1.10,2013-02-15 10:08:00,
2013-02-15 03:23:00,46.5,19.0,30.11,East,80,17.0,30.0,33,0.00,,,0.00,weatherlink.com 1.10,2013-02-15 10:23:00,
2013-02-15 03:38:00,46.7,20.0,30.11,East,79,19.0,32.0,34,0.00,,,0.00,weatherlink.com 1.10,2013-02-15 10:38:00,
2013-02-15 03:53:00,46.6,20.0,30.11,ENE,57,15.0,22.0,35,0.00,,,0.00,weatherlink.com 1.10,2013-02-15 10:53:00,
2013-02-15 04:08:00,46.5,20.0,30.11,ESE,109,12.0,24.0,35,0.00,,,0.00,weatherlink.com 1.10,2013-02-15 11:08:00,
2013-02-15 04:23:00,46.2,20.0,30.12,ESE,105,7.0,26.0,36,0.00,,,0.00,weatherlink.com 1.10,2013-02-15 11:23:00,
2013-02-15 04:38:00,44.7,22.0,30.12,East,83,22.0,30.0,40,0.00,,,0.00,weatherlink.com 1.10,2013-02-15 11:38:00,
2013-02-15 04:53:00,42.7,23.0,30.13,ENE,67,18.0,34.0,45,0.00,,,0.00,weatherlink.com 1.10,2013-02-15 11:53:00,
2013-02-15 05:09:00,43.1,22.0,30.14,SE,136,16.0,31.0,44,0.00,,,0.00,weatherlink.com 1.10,2013-02-15 12:09:00,
2013-02-15 05:24:00,43.1,23.0,30.15,ESE,111,18.0,29.0,45,0.00,,,0.00,weatherlink.com 1.10,2013-02-15 12:24:00,
2013-02-15 05:38:00,42.1,23.0,30.15,ESE,105,16.0,28.0,47,0.00,,,0.00,weatherlink.com 1.10,2013-02-15 12:38:00,
2013-02-15 05:53:00,42.4,23.0,30.16,ENE,64,25.0,29.0,46,0.00,,,0.00,weatherlink.com 1.10,2013-02-15 12:53:00,
2013-02-15 06:08:00,41.1,23.0,30.17,ESE,103,20.0,30.0,49,0.00,,,0.00,weatherlink.com 1.10,2013-02-15 13:08:00,
2013-02-15 06:23:00,40.5,23.0,30.17,ENE,77,21.0,28.0,51,0.00,,,0.00,weatherlink.com 1.10,2013-02-15 13:23:00,
2013-02-15 06:39:00,39.7,24.0,30.18,ENE,73,24.0,30.0,53,0.00,,,0.00,weatherlink.com 1.10,2013-02-15 13:39:00,
2013-02-15 06:54:00,39.5,24.0,30.18,ENE,74,18.0,27.0,54,0.00,,,0.00,weatherlink.com 1.10,2013-02-15 13:54:00,
2013-02-15 07:09:00,38.9,24.0,30.20,East,82,18.0,26.0,56,0.00,,,0.00,weatherlink.com 1.10,2013-02-15 14:09:00,
2013-02-15 07:24:00,38.3,25.0,30.19,SE,131,22.0,28.0,58,0.00,,,0.00,weatherlink.com 1.10,2013-02-15 14:24:00,
2013-02-15 07:39:00,38.5,25.0,30.20,SE,124,21.0,30.0,58,0.00,,,0.00,weatherlink.com 1.10,2013-02-15 14:39:00,
2013-02-15 07:54:00,39.1,25.0,30.21,ESE,120,17.0,27.0,58,0.00,,,0.00,weatherlink.com 1.10,2013-02-15 14:54:00,
2013-02-15 08:09:00,38.8,25.0,30.22,ESE,117,17.0,30.0,58,0.00,,,0.00,weatherlink.com 1.10,2013-02-15 15:09:00,
2013-02-15 08:24:00,38.7,25.0,30.22,ESE,109,22.0,24.0,59,0.00,,,0.00,weatherlink.com 1.10,2013-02-15 15:24:00,
2013-02-15 08:39:00,39.1,26.0,30.23,ENE,77,16.0,26.0,59,0.00,,,0.00,weatherlink.com 1.10,2013-02-15 15:39:00,
2013-02-15 08:54:00,39.9,26.0,30.24,East,81,20.0,20.0,57,0.00,,,0.00,weatherlink.com 1.10,2013-02-15 15:54:00,
2013-02-15 09:09:00,40.2,25.0,30.24,ESE,107,11.0,22.0,56,0.00,,,0.00,weatherlink.com 1.10,2013-02-15 16:09:00,
2013-02-15 09:24:00,39.9,26.0,30.25,SE,145,8.0,25.0,57,0.00,,,0.00,weatherlink.com 1.10,2013-02-15 16:24:00,
2013-02-15 09:39:00,40.3,26.0,30.26,ESE,111,9.0,20.0,57,0.00,,,0.00,weatherlink.com 1.10,2013-02-15 16:39:00,
2013-02-15 09:54:00,40.6,26.0,30.26,East,83,13.0,23.0,56,0.00,,,0.00,weatherlink.com 1.10,2013-02-15 16:54:00,
2013-02-15 10:09:00,41.0,26.0,30.25,ESE,108,13.0,18.0,55,0.00,,,0.00,weatherlink.com 1.10,2013-02-15 17:09:00,
2013-02-15 10:24:00,41.3,26.0,30.26,ESE,113,16.0,19.0,55,0.00,,,0.00,weatherlink.com 1.10,2013-02-15 17:24:00,
2013-02-15 10:39:00,42.4,27.0,30.25,East,98,13.0,16.0,54,0.00,,,0.00,weatherlink.com 1.10,2013-02-15 17:39:00,
2013-02-15 10:54:00,43.2,26.0,30.25,ESE,119,9.0,15.0,52,0.00,,,0.00,weatherlink.com 1.10,2013-02-15 17:54:00,
2013-02-15 11:09:00,44.4,27.0,30.25,ESE,103,11.0,15.0,50,0.00,,,0.00,weatherlink.com 1.10,2013-02-15 18:09:00,
2013-02-15 11:25:00,45.3,27.0,30.24,ESE,103,13.0,15.0,49,0.00,,,0.00,weatherlink.com 1.10,2013-02-15 18:25:00,
2013-02-15 11:39:00,45.8,27.0,30.25,ESE,117,11.0,12.0,48,0.00,,,0.00,weatherlink.com 1.10,2013-02-15 18:39:00,
2013-02-15 11:54:00,46.9,27.0,30.24,ESE,112,3.0,10.0,46,0.00,,,0.00,weatherlink.com 1.10,2013-02-15 18:54:00,
2013-02-15 12:10:00,48.1,26.0,30.24,North,11,0.0,9.0,43,0.00,,,0.00,weatherlink.com 1.10,2013-02-15 19:10:00,
2013-02-15 12:24:00,50.2,27.0,30.23,SW,225,2.0,5.0,40,0.00,,,0.00,weatherlink.com 1.10,2013-02-15 19:24:00,
2013-02-15 12:39:00,49.1,26.0,30.23,West,267,5.0,10.0,41,0.00,,,0.00,weatherlink.com 1.10,2013-02-15 19:39:00,
2013-02-15 12:54:00,49.2,26.0,30.22,SSE,149,2.0,7.0,41,0.00,,,0.00,weatherlink.com 1.10,2013-02-15 19:54:00,
2013-02-15 13:09:00,49.7,25.0,30.21,SW,225,3.0,10.0,39,0.00,,,0.00,weatherlink.com 1.10,2013-02-15 20:09:00,
2013-02-15 13:24:00,50.5,26.0,30.20,SSE,163,2.0,9.0,38,0.00,,,0.00,weatherlink.com 1.10,2013-02-15 20:24:00,
2013-02-15 13:40:00,51.5,26.0,30.20,SSW,211,4.0,5.0,37,0.00,,,0.00,weatherlink.com 1.10,2013-02-15 20:40:00,
2013-02-15 13:54:00,51.9,26.0,30.19,WSW,239,4.0,8.0,37,0.00,,,0.00,weatherlink.com 1.10,2013-02-15 20:54:00,
2013-02-15 14:09:00,52.4,25.0,30.18,WSW,246,6.0,10.0,35,0.00,,,0.00,weatherlink.com 1.10,2013-02-15 21:09:00,
2013-02-15 14:24:00,52.0,26.0,30.18,SW,230,2.0,7.0,36,0.00,,,0.00,weatherlink.com 1.10,2013-02-15 21:24:00,
2013-02-15 14:39:00,53.3,25.0,30.18,South,188,5.0,9.0,33,0.00,,,0.00,weatherlink.com 1.10,2013-02-15 21:39:00,
2013-02-15 14:55:00,52.9,24.0,30.18,SSE,168,4.0,10.0,33,0.00,,,0.00,weatherlink.com 1.10,2013-02-15 21:55:00,
2013-02-15 15:09:00,52.5,20.0,30.18,NW,305,4.0,9.0,28,0.00,,,0.00,weatherlink.com 1.10,2013-02-15 22:09:00,
2013-02-15 15:24:00,53.3,21.0,30.18,West,259,3.0,7.0,28,0.00,,,0.00,weatherlink.com 1.10,2013-02-15 22:24:00,
2013-02-15 15:39:00,54.1,20.0,30.18,NW,304,3.0,9.0,26,0.00,,,0.00,weatherlink.com 1.10,2013-02-15 22:39:00,
2013-02-15 15:54:00,54.3,20.0,30.18,West,259,2.0,10.0,26,0.00,,,0.00,weatherlink.com 1.10,2013-02-15 22:54:00,
2013-02-15 16:10:00,55.4,18.0,30.18,WNW,302,4.0,7.0,23,0.00,,,0.00,weatherlink.com 1.10,2013-02-15 23:10:00,
2013-02-15 16:24:00,55.1,19.0,30.18,West,269,2.0,7.0,24,0.00,,,0.00,weatherlink.com 1.10,2013-02-15 23:24:00,
2013-02-15 16:39:00,55.5,21.0,30.18,ENE,64,2.0,3.0,26,0.00,,,0.00,weatherlink.com 1.10,2013-02-15 23:39:00,
2013-02-15 16:55:00,55.4,19.0,30.18,NNE,22,2.0,6.0,24,0.00,,,0.00,weatherlink.com 1.10,2013-02-15 23:55:00,
2013-02-15 17:10:00,54.1,21.0,30.18,ESE,107,7.0,7.0,27,0.00,,,0.00,weatherlink.com 1.10,2013-02-16 00:10:00,
2013-02-15 17:25:00,54.1,18.0,30.19,West,277,0.0,5.0,24,0.00,,,0.00,weatherlink.com 1.10,2013-02-16 00:25:00,
2013-02-15 17:40:00,53.3,16.0,30.20,SW,218,0.0,2.0,23,0.00,,,0.00,weatherlink.com 1.10,2013-02-16 00:40:00,
2013-02-15 17:55:00,51.4,21.0,30.20,ESE,110,11.0,11.0,30,0.00,,,0.00,weatherlink.com 1.10,2013-02-16 00:55:00,
2013-02-15 18:10:00,50.6,20.0,30.20,ESE,110,3.0,8.0,30,0.00,,,0.00,weatherlink.com 1.10,2013-02-16 01:10:00,
2013-02-15 18:25:00,50.3,21.0,30.20,East,86,6.0,10.0,31,0.00,,,0.00,weatherlink.com 1.10,2013-02-16 01:25:00,
2013-02-15 18:40:00,50.1,21.0,30.20,East,84,7.0,10.0,32,0.00,,,0.00,weatherlink.com 1.10,2013-02-16 01:40:00,
2013-02-15 19:10:00,49.9,21.0,30.21,ESE,111,7.0,9.0,32,0.00,,,0.00,weatherlink.com 1.10,2013-02-16 02:10:00,
2013-02-15 19:25:00,49.8,21.0,30.21,ESE,111,5.0,9.0,32,0.00,,,0.00,weatherlink.com 1.10,2013-02-16 02:25:00,
2013-02-15 19:40:00,49.3,20.0,30.22,ESE,106,1.0,7.0,32,0.00,,,0.00,weatherlink.com 1.10,2013-02-16 02:40:00,
2013-02-15 19:55:00,47.9,21.0,30.23,SSW,200,0.0,2.0,35,0.00,,,0.00,weatherlink.com 1.10,2013-02-16 02:55:00,
2013-02-15 20:10:00,46.7,22.0,30.24,SW,216,1.0,5.0,38,0.00,,,0.00,weatherlink.com 1.10,2013-02-16 03:10:00,
2013-02-15 20:25:00,46.3,22.0,30.25,ENE,77,3.0,4.0,38,0.00,,,0.00,weatherlink.com 1.10,2013-02-16 03:25:00,
2013-02-15 20:40:00,47.0,21.0,30.26,ESE,113,2.0,3.0,36,0.00,,,0.00,weatherlink.com 1.10,2013-02-16 03:40:00,
2013-02-15 20:55:00,46.9,21.0,30.26,East,86,0.0,2.0,36,0.00,,,0.00,weatherlink.com 1.10,2013-02-16 03:55:00,
2013-02-15 21:10:00,46.7,21.0,30.27,SE,129,0.0,5.0,37,0.00,,,0.00,weatherlink.com 1.10,2013-02-16 04:10:00,
2013-02-15 21:25:00,45.6,22.0,30.28,East,79,0.0,1.0,39,0.00,,,0.00,weatherlink.com 1.10,2013-02-16 04:25:00,
2013-02-15 21:40:00,45.7,21.0,30.29,ESE,115,1.0,4.0,38,0.00,,,0.00,weatherlink.com 1.10,2013-02-16 04:40:00,
2013-02-15 21:55:00,45.9,21.0,30.29,East,85,2.0,2.0,38,0.00,,,0.00,weatherlink.com 1.10,2013-02-16 04:55:00,
2013-02-15 22:10:00,45.3,21.0,30.29,SW,221,0.0,1.0,39,0.00,,,0.00,weatherlink.com 1.10,2013-02-16 05:10:00,
2013-02-15 22:25:00,45.1,22.0,30.29,NE,36,0.0,1.0,40,0.00,,,0.00,weatherlink.com 1.10,2013-02-16 05:25:00,
2013-02-15 22:40:00,45.3,21.0,30.29,ENE,77,1.0,2.0,39,0.00,,,0.00,weatherlink.com 1.10,2013-02-16 05:40:00,
2013-02-15 22:55:00,46.0,21.0,30.30,ENE,73,0.0,2.0,38,0.00,,,0.00,weatherlink.com 1.10,2013-02-16 05:55:00,
2013-02-15 23:10:00,45.3,21.0,30.30,NE,47,0.0,0.0,39,0.00,,,0.00,weatherlink.com 1.10,2013-02-16 06:10:00,
2013-02-15 23:25:00,44.8,21.0,30.30,East,91,0.0,2.0,39,0.00,,,0.00,weatherlink.com 1.10,2013-02-16 06:25:00,
2013-02-15 23:40:00,45.9,21.0,30.30,ENE,71,0.0,2.0,38,0.00,,,0.00,weatherlink.com 1.10,2013-02-16 06:40:00,
2013-02-15 23:55:00,45.2,21.0,30.30,East,90,0.0,2.0,38,0.00,,,0.00,weatherlink.com 1.10,2013-02-16 06:55:00,